Terminal Aerodrome Forecast
Issued by NWS Melbourne, FL

Home | Current Version | Previous Version | Text Only | Print | Product List | Glossary On
Versions: 1 2 3 4 5 6 7 8 9 10 11 12 13 14 15 16 17
176
FTUS42 KMLB 241720
TAFDAB
TAF
KDAB 241720Z 2418/2518 06012KT P6SM SCT030 SCT120
     FM250100 03007KT P6SM SCT025 SCT050 BKN250
     FM251300 34006KT P6SM SCT030 SCT250=

USA.gov is the U.S. government's official web portal to all federal, state and local government web resources and services.